sensor_id;sensor_type;location;lat;lon;timestamp;temperature;humidity
11908;DHT22;6014;47.690;9.130;2023-08-12T00:02:04;17.10;99.90
11908;DHT22;6014;47.690;9.130;2023-08-12T00:04:32;17.10;99.90
11908;DHT22;6014;47.690;9.130;2023-08-12T00:07:00;17.10;99.90
11908;DHT22;6014;47.690;9.130;2023-08-12T00:09:28;17.00;99.90
11908;DHT22;6014;47.690;9.130;2023-08-12T00:11:56;17.10;99.90
11908;DHT22;6014;47.690;9.130;2023-08-12T00:14:26;17.10;99.90
11908;DHT22;6014;47.690;9.130;2023-08-12T00:16:54;17.00;99.90
11908;DHT22;6014;47.690;9.130;2023-08-12T00:19:22;16.90;99.90
11908;DHT22;6014;47.690;9.130;2023-08-12T00:21:50;16.80;99.90
11908;DHT22;6014;47.690;9.130;2023-08-12T00:24:19;16.80;99.90
11908;DHT22;6014;47.690;9.130;2023-08-12T00:26:47;16.90;99.90
11908;DHT22;6014;47.690;9.130;2023-08-12T00:29:16;16.90;99.90
11908;DHT22;6014;47.690;9.130;2023-08-12T00:31:45;16.90;99.90
11908;DHT22;6014;47.690;9.130;2023-08-12T00:34:13;16.90;99.90
11908;DHT22;6014;47.690;9.130;2023-08-12T00:36:41;16.90;99.90
11908;DHT22;6014;47.690;9.130;2023-08-12T00:39:10;16.80;99.90
11908;DHT22;6014;47.690;9.130;2023-08-12T00:41:38;16.90;99.90
11908;DHT22;6014;47.690;9.130;2023-08-12T00:44:06;16.80;99.90
11908;DHT22;6014;47.690;9.130;2023-08-12T00:46:35;16.80;99.90
11908;DHT22;6014;47.690;9.130;2023-08-12T00:49:06;16.80;99.90
11908;DHT22;6014;47.690;9.130;2023-08-12T00:51:34;16.80;99.90
11908;DHT22;6014;47.690;9.130;2023-08-12T00:54:04;16.70;99.90
11908;DHT22;6014;47.690;9.130;2023-08-12T00:56:34;16.70;99.90
11908;DHT22;6014;47.690;9.130;2023-08-12T00:59:05;16.70;99.90
11908;DHT22;6014;47.690;9.130;2023-08-12T01:01:36;16.60;99.90
11908;DHT22;6014;47.690;9.130;2023-08-12T01:04:07;16.40;99.90
11908;DHT22;6014;47.690;9.130;2023-08-12T01:06:35;16.40;99.90
11908;DHT22;6014;47.690;9.130;2023-08-12T01:09:04;16.50;99.90
11908;DHT22;6014;47.690;9.130;2023-08-12T01:11:39;16.50;99.90
11908;DHT22;6014;47.690;9.130;2023-08-12T01:14:12;16.40;99.90
11908;DHT22;6014;47.690;9.130;2023-08-12T01:16:45;16.40;99.90
11908;DHT22;6014;47.690;9.130;2023-08-12T01:19:21;16.40;99.90
11908;DHT22;6014;47.690;9.130;2023-08-12T01:21:53;16.40;99.90
11908;DHT22;6014;47.690;9.130;2023-08-12T01:24:25;16.40;99.90
11908;DHT22;6014;47.690;9.130;2023-08-12T01:27:01;16.50;99.90
11908;DHT22;6014;47.690;9.130;2023-08-12T01:29:30;16.50;99.90
11908;DHT22;6014;47.690;9.130;2023-08-12T01:32:04;16.50;99.90
11908;DHT22;6014;47.690;9.130;2023-08-12T01:34:40;16.40;99.90
11908;DHT22;6014;47.690;9.130;2023-08-12T01:37:14;16.50;99.90
11908;DHT22;6014;47.690;9.130;2023-08-12T01:39:47;16.50;99.90
11908;DHT22;6014;47.690;9.130;2023-08-12T01:42:17;16.60;99.90
11908;DHT22;6014;47.690;9.130;2023-08-12T01:44:46;16.50;99.90
11908;DHT22;6014;47.690;9.130;2023-08-12T01:47:14;16.50;99.90
11908;DHT22;6014;47.690;9.130;2023-08-12T01:49:43;16.50;99.90
11908;DHT22;6014;47.690;9.130;2023-08-12T01:52:11;16.50;99.90
11908;DHT22;6014;47.690;9.130;2023-08-12T01:54:39;16.50;99.90
11908;DHT22;6014;47.690;9.130;2023-08-12T01:57:08;16.60;99.90
11908;DHT22;6014;47.690;9.130;2023-08-12T01:59:37;16.50;99.90
11908;DHT22;6014;47.690;9.130;2023-08-12T02:02:05;16.60;99.90
11908;DHT22;6014;47.690;9.130;2023-08-12T02:04:34;16.60;99.90
11908;DHT22;6014;47.690;9.130;2023-08-12T02:07:03;16.60;99.90
11908;DHT22;6014;47.690;9.130;2023-08-12T02:09:31;16.60;99.90
11908;DHT22;6014;47.690;9.130;2023-08-12T02:11:59;16.60;99.90
11908;DHT22;6014;47.690;9.130;2023-08-12T02:14:29;16.70;99.90
11908;DHT22;6014;47.690;9.130;2023-08-12T02:16:57;16.70;99.90
11908;DHT22;6014;47.690;9.130;2023-08-12T02:19:25;16.80;99.90
11908;DHT22;6014;47.690;9.130;2023-08-12T02:21:53;16.80;99.90
11908;DHT22;6014;47.690;9.130;2023-08-12T02:24:21;16.80;99.90
11908;DHT22;6014;47.690;9.130;2023-08-12T02:26:49;16.80;99.90
11908;DHT22;6014;47.690;9.130;2023-08-12T02:29:26;16.90;99.90
11908;DHT22;6014;47.690;9.130;2023-08-12T02:31:56;16.90;99.90
11908;DHT22;6014;47.690;9.130;2023-08-12T02:34:24;16.90;99.90
11908;DHT22;6014;47.690;9.130;2023-08-12T02:36:52;16.90;99.90
11908;DHT22;6014;47.690;9.130;2023-08-12T02:39:20;17.00;99.90
11908;DHT22;6014;47.690;9.130;2023-08-12T02:41:48;17.10;99.90
11908;DHT22;6014;47.690;9.130;2023-08-12T02:44:17;17.10;99.90
11908;DHT22;6014;47.690;9.130;2023-08-12T02:46:45;17.00;99.90
11908;DHT22;6014;47.690;9.130;2023-08-12T02:49:14;17.00;99.90
11908;DHT22;6014;47.690;9.130;2023-08-12T02:51:42;17.00;99.90
11908;DHT22;6014;47.690;9.130;2023-08-12T02:54:10;17.00;99.90
11908;DHT22;6014;47.690;9.130;2023-08-12T02:56:39;17.00;99.90
11908;DHT22;6014;47.690;9.130;2023-08-12T02:59:07;17.00;99.90
11908;DHT22;6014;47.690;9.130;2023-08-12T03:01:35;17.00;99.90
11908;DHT22;6014;47.690;9.130;2023-08-12T03:04:05;17.00;99.90
11908;DHT22;6014;47.690;9.130;2023-08-12T03:06:34;17.00;99.90
11908;DHT22;6014;47.690;9.130;2023-08-12T03:09:02;17.00;99.90
11908;DHT22;6014;47.690;9.130;2023-08-12T03:11:30;17.00;99.90
11908;DHT22;6014;47.690;9.130;2023-08-12T03:13:59;16.90;99.90
11908;DHT22;6014;47.690;9.130;2023-08-12T03:16:27;17.00;99.90
11908;DHT22;6014;47.690;9.130;2023-08-12T03:18:55;16.80;99.90
11908;DHT22;6014;47.690;9.130;2023-08-12T03:21:23;16.70;99.90
11908;DHT22;6014;47.690;9.130;2023-08-12T03:23:53;16.80;99.90
11908;DHT22;6014;47.690;9.130;2023-08-12T03:26:21;16.90;99.90
11908;DHT22;6014;47.690;9.130;2023-08-12T03:28:49;16.90;99.90
11908;DHT22;6014;47.690;9.130;2023-08-12T03:31:19;16.90;99.90
11908;DHT22;6014;47.690;9.130;2023-08-12T03:33:47;16.80;99.90
11908;DHT22;6014;47.690;9.130;2023-08-12T03:36:15;16.80;99.90
11908;DHT22;6014;47.690;9.130;2023-08-12T03:38:43;16.80;99.90
11908;DHT22;6014;47.690;9.130;2023-08-12T03:41:13;16.90;99.90
11908;DHT22;6014;47.690;9.130;2023-08-12T03:43:41;17.00;99.90
11908;DHT22;6014;47.690;9.130;2023-08-12T03:46:09;17.10;99.90
11908;DHT22;6014;47.690;9.130;2023-08-12T03:48:37;17.10;99.90
11908;DHT22;6014;47.690;9.130;2023-08-12T03:51:05;17.00;99.90
11908;DHT22;6014;47.690;9.130;2023-08-12T03:53:33;17.10;99.90
11908;DHT22;6014;47.690;9.130;2023-08-12T03:56:02;17.10;99.90
11908;DHT22;6014;47.690;9.130;2023-08-12T03:58:32;17.20;99.90
11908;DHT22;6014;47.690;9.130;2023-08-12T04:01:00;17.30;99.90
11908;DHT22;6014;47.690;9.130;2023-08-12T04:03:28;17.40;99.90
11908;DHT22;6014;47.690;9.130;2023-08-12T04:05:56;17.40;99.90
11908;DHT22;6014;47.690;9.130;2023-08-12T04:08:25;17.40;99.90
11908;DHT22;6014;47.690;9.130;2023-08-12T04:10:53;17.40;99.90
11908;DHT22;6014;47.690;9.130;2023-08-12T04:13:22;17.30;99.90
11908;DHT22;6014;47.690;9.130;2023-08-12T04:15:52;17.30;99.90
11908;DHT22;6014;47.690;9.130;2023-08-12T04:18:20;17.30;99.90
11908;DHT22;6014;47.690;9.130;2023-08-12T04:20:49;17.40;99.90
11908;DHT22;6014;47.690;9.130;2023-08-12T04:23:17;17.40;99.90
11908;DHT22;6014;47.690;9.130;2023-08-12T04:25:46;17.40;99.90
11908;DHT22;6014;47.690;9.130;2023-08-12T04:28:15;17.40;99.90
11908;DHT22;6014;47.690;9.130;2023-08-12T04:30:44;17.40;99.90
11908;DHT22;6014;47.690;9.130;2023-08-12T04:33:14;17.50;99.90
11908;DHT22;6014;47.690;9.130;2023-08-12T04:35:43;17.50;99.90
11908;DHT22;6014;47.690;9.130;2023-08-12T04:38:11;17.50;99.90
11908;DHT22;6014;47.690;9.130;2023-08-12T04:40:40;17.60;99.90
11908;DHT22;6014;47.690;9.130;2023-08-12T04:43:08;17.60;99.90
11908;DHT22;6014;47.690;9.130;2023-08-12T04:45:39;17.50;99.90
11908;DHT22;6014;47.690;9.130;2023-08-12T04:48:07;17.50;99.90
11908;DHT22;6014;47.690;9.130;2023-08-12T04:50:39;17.70;99.90
11908;DHT22;6014;47.690;9.130;2023-08-12T04:53:07;17.80;99.90
11908;DHT22;6014;47.690;9.130;2023-08-12T04:55:35;17.80;99.90
11908;DHT22;6014;47.690;9.130;2023-08-12T04:58:03;17.80;99.90
11908;DHT22;6014;47.690;9.130;2023-08-12T05:00:31;17.90;99.90
11908;DHT22;6014;47.690;9.130;2023-08-12T05:03:00;17.90;99.90
11908;DHT22;6014;47.690;9.130;2023-08-12T05:05:28;17.90;99.90
11908;DHT22;6014;47.690;9.130;2023-08-12T05:07:58;18.10;99.90
11908;DHT22;6014;47.690;9.130;2023-08-12T05:10:26;18.10;99.90
11908;DHT22;6014;47.690;9.130;2023-08-12T05:12:56;18.20;99.90
11908;DHT22;6014;47.690;9.130;2023-08-12T05:15:25;18.40;99.90
11908;DHT22;6014;47.690;9.130;2023-08-12T05:17:53;18.40;99.90
11908;DHT22;6014;47.690;9.130;2023-08-12T05:20:21;18.30;99.90
11908;DHT22;6014;47.690;9.130;2023-08-12T05:22:49;18.30;99.90
11908;DHT22;6014;47.690;9.130;2023-08-12T05:25:19;18.30;99.90
11908;DHT22;6014;47.690;9.130;2023-08-12T05:27:47;18.40;99.90
11908;DHT22;6014;47.690;9.130;2023-08-12T05:30:17;18.50;99.90
11908;DHT22;6014;47.690;9.130;2023-08-12T05:32:45;18.60;99.90
11908;DHT22;6014;47.690;9.130;2023-08-12T05:35:13;18.70;99.90
11908;DHT22;6014;47.690;9.130;2023-08-12T05:37:41;18.70;99.90
11908;DHT22;6014;47.690;9.130;2023-08-12T05:40:10;18.80;99.90
11908;DHT22;6014;47.690;9.130;2023-08-12T05:42:39;18.80;99.90
11908;DHT22;6014;47.690;9.130;2023-08-12T05:45:08;18.90;99.90
11908;DHT22;6014;47.690;9.130;2023-08-12T05:47:37;19.00;99.90
11908;DHT22;6014;47.690;9.130;2023-08-12T05:50:06;19.30;99.90
11908;DHT22;6014;47.690;9.130;2023-08-12T05:52:34;19.30;99.90
11908;DHT22;6014;47.690;9.130;2023-08-12T05:55:03;19.30;99.90
11908;DHT22;6014;47.690;9.130;2023-08-12T05:57:31;19.20;99.90
11908;DHT22;6014;47.690;9.130;2023-08-12T06:00:01;19.10;99.90
11908;DHT22;6014;47.690;9.130;2023-08-12T06:02:29;19.10;99.90
11908;DHT22;6014;47.690;9.130;2023-08-12T06:04:57;19.20;99.90
11908;DHT22;6014;47.690;9.130;2023-08-12T06:07:25;19.40;99.90
11908;DHT22;6014;47.690;9.130;2023-08-12T06:09:54;19.50;99.90
11908;DHT22;6014;47.690;9.130;2023-08-12T06:12:22;19.60;99.90
11908;DHT22;6014;47.690;9.130;2023-08-12T06:14:50;19.80;99.90
11908;DHT22;6014;47.690;9.130;2023-08-12T06:17:19;20.10;99.90
11908;DHT22;6014;47.690;9.130;2023-08-12T06:19:47;20.20;99.90
11908;DHT22;6014;47.690;9.130;2023-08-12T06:22:15;20.10;99.90
11908;DHT22;6014;47.690;9.130;2023-08-12T06:24:43;20.30;99.90
11908;DHT22;6014;47.690;9.130;2023-08-12T06:27:11;20.30;99.90
11908;DHT22;6014;47.690;9.130;2023-08-12T06:29:40;20.90;99.90
11908;DHT22;6014;47.690;9.130;2023-08-12T06:32:08;21.40;99.90
11908;DHT22;6014;47.690;9.130;2023-08-12T06:34:41;21.50;99.90
11908;DHT22;6014;47.690;9.130;2023-08-12T06:37:09;22.00;99.90
11908;DHT22;6014;47.690;9.130;2023-08-12T06:39:37;22.00;99.90
11908;DHT22;6014;47.690;9.130;2023-08-12T06:42:06;22.80;99.90
11908;DHT22;6014;47.690;9.130;2023-08-12T06:44:34;22.50;99.90
11908;DHT22;6014;47.690;9.130;2023-08-12T06:47:02;22.10;99.90
11908;DHT22;6014;47.690;9.130;2023-08-12T06:49:30;22.70;99.90
11908;DHT22;6014;47.690;9.130;2023-08-12T06:52:00;23.20;99.90
11908;DHT22;6014;47.690;9.130;2023-08-12T06:54:28;24.20;99.90
11908;DHT22;6014;47.690;9.130;2023-08-12T06:56:56;24.10;99.90
11908;DHT22;6014;47.690;9.130;2023-08-12T06:59:24;24.00;99.90
11908;DHT22;6014;47.690;9.130;2023-08-12T07:01:52;24.20;99.90
11908;DHT22;6014;47.690;9.130;2023-08-12T07:04:20;24.40;99.90
11908;DHT22;6014;47.690;9.130;2023-08-12T07:06:48;24.60;99.90
11908;DHT22;6014;47.690;9.130;2023-08-12T07:09:19;24.70;99.90
11908;DHT22;6014;47.690;9.130;2023-08-12T07:11:48;25.30;99.90
11908;DHT22;6014;47.690;9.130;2023-08-12T07:14:16;25.70;99.90
11908;DHT22;6014;47.690;9.130;2023-08-12T07:16:44;25.70;99.90
11908;DHT22;6014;47.690;9.130;2023-08-12T07:19:12;25.90;99.90
11908;DHT22;6014;47.690;9.130;2023-08-12T07:21:51;25.60;99.90
11908;DHT22;6014;47.690;9.130;2023-08-12T07:24:21;25.10;99.90
11908;DHT22;6014;47.690;9.130;2023-08-12T07:26:51;25.50;99.90
11908;DHT22;6014;47.690;9.130;2023-08-12T07:29:20;25.80;99.90
11908;DHT22;6014;47.690;9.130;2023-08-12T07:31:54;25.90;99.90
11908;DHT22;6014;47.690;9.130;2023-08-12T07:34:26;25.70;99.90
11908;DHT22;6014;47.690;9.130;2023-08-12T07:36:58;24.90;99.90
11908;DHT22;6014;47.690;9.130;2023-08-12T07:39:28;25.10;99.90
11908;DHT22;6014;47.690;9.130;2023-08-12T07:41:56;25.60;99.90
11908;DHT22;6014;47.690;9.130;2023-08-12T07:44:24;25.70;99.90
11908;DHT22;6014;47.690;9.130;2023-08-12T07:46:52;26.50;99.90
11908;DHT22;6014;47.690;9.130;2023-08-12T07:49:21;26.30;99.90
11908;DHT22;6014;47.690;9.130;2023-08-12T07:51:49;26.70;99.90
11908;DHT22;6014;47.690;9.130;2023-08-12T07:54:17;26.40;99.10
11908;DHT22;6014;47.690;9.130;2023-08-12T07:56:46;26.50;99.10
11908;DHT22;6014;47.690;9.130;2023-08-12T07:59:14;26.70;99.90
11908;DHT22;6014;47.690;9.130;2023-08-12T08:01:43;27.40;98.30
11908;DHT22;6014;47.690;9.130;2023-08-12T08:04:11;27.20;97.00
11908;DHT22;6014;47.690;9.130;2023-08-12T08:06:39;27.50;98.60
11908;DHT22;6014;47.690;9.130;2023-08-12T08:09:13;26.90;97.00
11908;DHT22;6014;47.690;9.130;2023-08-12T08:11:41;26.40;98.20
11908;DHT22;6014;47.690;9.130;2023-08-12T08:14:10;25.50;99.90
11908;DHT22;6014;47.690;9.130;2023-08-12T08:16:38;26.00;99.90
11908;DHT22;6014;47.690;9.130;2023-08-12T08:19:08;26.90;99.90
11908;DHT22;6014;47.690;9.130;2023-08-12T08:21:39;27.30;98.40
11908;DHT22;6014;47.690;9.130;2023-08-12T08:24:07;27.40;96.50
11908;DHT22;6014;47.690;9.130;2023-08-12T08:26:38;27.50;96.30
11908;DHT22;6014;47.690;9.130;2023-08-12T08:29:07;26.90;96.60
11908;DHT22;6014;47.690;9.130;2023-08-12T08:31:37;26.20;97.20
11908;DHT22;6014;47.690;9.130;2023-08-12T08:34:05;26.20;97.90
11908;DHT22;6014;47.690;9.130;2023-08-12T08:36:33;26.20;98.60
11908;DHT22;6014;47.690;9.130;2023-08-12T08:39:02;26.40;97.10
11908;DHT22;6014;47.690;9.130;2023-08-12T08:41:31;26.50;98.00
11908;DHT22;6014;47.690;9.130;2023-08-12T08:44:06;27.20;98.30
11908;DHT22;6014;47.690;9.130;2023-08-12T08:46:36;27.50;95.60
11908;DHT22;6014;47.690;9.130;2023-08-12T08:49:05;27.10;95.50
11908;DHT22;6014;47.690;9.130;2023-08-12T08:51:35;27.10;96.40
11908;DHT22;6014;47.690;9.130;2023-08-12T08:54:03;27.00;95.80
11908;DHT22;6014;47.690;9.130;2023-08-12T08:56:32;26.40;94.70
11908;DHT22;6014;47.690;9.130;2023-08-12T08:59:04;26.40;95.30
11908;DHT22;6014;47.690;9.130;2023-08-12T09:01:32;27.00;95.00
11908;DHT22;6014;47.690;9.130;2023-08-12T09:04:05;27.20;95.10
11908;DHT22;6014;47.690;9.130;2023-08-12T09:06:36;27.30;94.50
11908;DHT22;6014;47.690;9.130;2023-08-12T09:09:05;27.20;94.90
11908;DHT22;6014;47.690;9.130;2023-08-12T09:11:43;27.20;94.50
11908;DHT22;6014;47.690;9.130;2023-08-12T09:14:12;27.10;94.30
11908;DHT22;6014;47.690;9.130;2023-08-12T09:16:40;27.10;94.60
11908;DHT22;6014;47.690;9.130;2023-08-12T09:19:09;27.90;93.20
11908;DHT22;6014;47.690;9.130;2023-08-12T09:21:40;28.20;92.80
11908;DHT22;6014;47.690;9.130;2023-08-12T09:24:09;27.70;92.90
11908;DHT22;6014;47.690;9.130;2023-08-12T09:26:37;27.40;92.60
11908;DHT22;6014;47.690;9.130;2023-08-12T09:29:07;28.10;92.60
11908;DHT22;6014;47.690;9.130;2023-08-12T09:31:35;27.50;92.90
11908;DHT22;6014;47.690;9.130;2023-08-12T09:34:05;27.60;93.70
11908;DHT22;6014;47.690;9.130;2023-08-12T09:36:35;27.50;93.80
11908;DHT22;6014;47.690;9.130;2023-08-12T09:39:06;27.30;94.10
11908;DHT22;6014;47.690;9.130;2023-08-12T09:41:36;26.70;94.80
11908;DHT22;6014;47.690;9.130;2023-08-12T09:44:05;26.40;95.50
11908;DHT22;6014;47.690;9.130;2023-08-12T09:46:33;26.20;95.70
11908;DHT22;6014;47.690;9.130;2023-08-12T09:49:02;26.20;95.80
11908;DHT22;6014;47.690;9.130;2023-08-12T09:51:35;26.40;95.50
11908;DHT22;6014;47.690;9.130;2023-08-12T09:54:04;27.10;94.90
11908;DHT22;6014;47.690;9.130;2023-08-12T09:56:36;28.00;93.30
11908;DHT22;6014;47.690;9.130;2023-08-12T09:59:05;29.00;91.60
11908;DHT22;6014;47.690;9.130;2023-08-12T10:01:41;29.40;90.90
11908;DHT22;6014;47.690;9.130;2023-08-12T10:04:11;29.60;88.60
11908;DHT22;6014;47.690;9.130;2023-08-12T10:06:47;30.00;85.60
11908;DHT22;6014;47.690;9.130;2023-08-12T10:09:15;30.00;85.50
11908;DHT22;6014;47.690;9.130;2023-08-12T10:11:45;29.40;85.80
11908;DHT22;6014;47.690;9.130;2023-08-12T10:14:14;28.90;90.40
11908;DHT22;6014;47.690;9.130;2023-08-12T10:16:46;28.70;91.00
11908;DHT22;6014;47.690;9.130;2023-08-12T10:19:15;28.60;89.60
11908;DHT22;6014;47.690;9.130;2023-08-12T10:21:55;28.10;91.10
11908;DHT22;6014;47.690;9.130;2023-08-12T10:24:23;27.60;91.90
11908;DHT22;6014;47.690;9.130;2023-08-12T10:27:02;27.60;93.00
11908;DHT22;6014;47.690;9.130;2023-08-12T10:29:30;27.40;92.70
11908;DHT22;6014;47.690;9.130;2023-08-12T10:32:10;27.20;93.50
11908;DHT22;6014;47.690;9.130;2023-08-12T10:34:54;27.20;93.50
11908;DHT22;6014;47.690;9.130;2023-08-12T10:37:32;26.80;93.10
11908;DHT22;6014;47.690;9.130;2023-08-12T10:40:19;26.60;94.00
11908;DHT22;6014;47.690;9.130;2023-08-12T10:42:51;26.50;95.40
11908;DHT22;6014;47.690;9.130;2023-08-12T10:45:48;26.50;97.20
11908;DHT22;6014;47.690;9.130;2023-08-12T10:48:17;26.40;95.60
11908;DHT22;6014;47.690;9.130;2023-08-12T10:50:49;26.30;95.70
11908;DHT22;6014;47.690;9.130;2023-08-12T10:53:27;26.40;96.00
11908;DHT22;6014;47.690;9.130;2023-08-12T10:56:00;26.40;96.00
11908;DHT22;6014;47.690;9.130;2023-08-12T10:58:29;26.40;95.30
11908;DHT22;6014;47.690;9.130;2023-08-12T11:00:58;26.50;95.20
11908;DHT22;6014;47.690;9.130;2023-08-12T11:03:30;26.60;94.90
11908;DHT22;6014;47.690;9.130;2023-08-12T11:06:04;26.90;95.20
11908;DHT22;6014;47.690;9.130;2023-08-12T11:08:34;27.20;94.40
11908;DHT22;6014;47.690;9.130;2023-08-12T11:11:19;27.20;94.70
11908;DHT22;6014;47.690;9.130;2023-08-12T11:13:53;27.00;94.00
11908;DHT22;6014;47.690;9.130;2023-08-12T11:16:41;26.90;93.90
11908;DHT22;6014;47.690;9.130;2023-08-12T11:19:10;26.80;94.60
11908;DHT22;6014;47.690;9.130;2023-08-12T11:21:40;26.80;95.60
11908;DHT22;6014;47.690;9.130;2023-08-12T11:24:11;26.90;95.10
11908;DHT22;6014;47.690;9.130;2023-08-12T11:26:43;27.10;94.80
11908;DHT22;6014;47.690;9.130;2023-08-12T11:29:13;27.40;94.50
11908;DHT22;6014;47.690;9.130;2023-08-12T11:31:41;27.60;94.70
11908;DHT22;6014;47.690;9.130;2023-08-12T11:34:09;27.90;93.80
11908;DHT22;6014;47.690;9.130;2023-08-12T11:36:42;27.90;93.60
11908;DHT22;6014;47.690;9.130;2023-08-12T11:39:11;27.60;93.80
11908;DHT22;6014;47.690;9.130;2023-08-12T11:41:39;27.50;93.70
11908;DHT22;6014;47.690;9.130;2023-08-12T11:44:16;27.40;94.10
11908;DHT22;6014;47.690;9.130;2023-08-12T11:46:44;27.10;93.20
11908;DHT22;6014;47.690;9.130;2023-08-12T11:49:12;27.00;93.80
11908;DHT22;6014;47.690;9.130;2023-08-12T11:51:41;27.00;93.80
11908;DHT22;6014;47.690;9.130;2023-08-12T11:54:11;27.10;94.00
11908;DHT22;6014;47.690;9.130;2023-08-12T11:56:40;27.10;93.80
11908;DHT22;6014;47.690;9.130;2023-08-12T11:59:09;27.10;95.10
11908;DHT22;6014;47.690;9.130;2023-08-12T12:01:37;26.90;94.90
11908;DHT22;6014;47.690;9.130;2023-08-12T12:04:10;26.80;95.70
11908;DHT22;6014;47.690;9.130;2023-08-12T12:06:38;26.60;95.50
11908;DHT22;6014;47.690;9.130;2023-08-12T12:09:10;26.60;95.50
11908;DHT22;6014;47.690;9.130;2023-08-12T12:11:54;26.60;95.70
11908;DHT22;6014;47.690;9.130;2023-08-12T12:14:35;26.50;96.00
11908;DHT22;6014;47.690;9.130;2023-08-12T12:17:38;26.50;96.70
11908;DHT22;6014;47.690;9.130;2023-08-12T12:20:19;26.50;97.10
11908;DHT22;6014;47.690;9.130;2023-08-12T12:22:52;26.50;97.00
11908;DHT22;6014;47.690;9.130;2023-08-12T12:25:40;26.50;97.20
11908;DHT22;6014;47.690;9.130;2023-08-12T12:28:35;26.60;97.50
11908;DHT22;6014;47.690;9.130;2023-08-12T12:31:22;26.50;97.10
11908;DHT22;6014;47.690;9.130;2023-08-12T12:34:00;26.50;95.70
11908;DHT22;6014;47.690;9.130;2023-08-12T12:36:38;26.50;95.40
11908;DHT22;6014;47.690;9.130;2023-08-12T12:39:11;26.40;95.00
11908;DHT22;6014;47.690;9.130;2023-08-12T12:41:49;26.40;94.50
11908;DHT22;6014;47.690;9.130;2023-08-12T12:44:33;26.20;94.30
11908;DHT22;6014;47.690;9.130;2023-08-12T12:47:12;26.00;94.40
11908;DHT22;6014;47.690;9.130;2023-08-12T12:49:53;25.80;95.70
11908;DHT22;6014;47.690;9.130;2023-08-12T12:52:27;25.30;99.90
11908;DHT22;6014;47.690;9.130;2023-08-12T12:55:04;24.90;99.90
11908;DHT22;6014;47.690;9.130;2023-08-12T12:57:36;25.00;99.90
11908;DHT22;6014;47.690;9.130;2023-08-12T13:00:19;25.60;99.90
11908;DHT22;6014;47.690;9.130;2023-08-12T13:03:18;26.30;99.90
11908;DHT22;6014;47.690;9.130;2023-08-12T13:05:56;27.00;98.20
11908;DHT22;6014;47.690;9.130;2023-08-12T13:08:36;27.80;96.30
11908;DHT22;6014;47.690;9.130;2023-08-12T13:11:10;28.20;94.20
11908;DHT22;6014;47.690;9.130;2023-08-12T13:13:45;28.30;93.30
11908;DHT22;6014;47.690;9.130;2023-08-12T13:16:27;28.40;91.60
11908;DHT22;6014;47.690;9.130;2023-08-12T13:19:07;28.90;90.70
11908;DHT22;6014;47.690;9.130;2023-08-12T13:21:42;29.20;91.10
11908;DHT22;6014;47.690;9.130;2023-08-12T13:24:16;29.50;89.60
11908;DHT22;6014;47.690;9.130;2023-08-12T13:26:52;30.00;86.40
11908;DHT22;6014;47.690;9.130;2023-08-12T13:29:29;30.60;81.70
11908;DHT22;6014;47.690;9.130;2023-08-12T13:32:11;30.90;83.50
11908;DHT22;6014;47.690;9.130;2023-08-12T13:34:56;30.90;80.70
11908;DHT22;6014;47.690;9.130;2023-08-12T13:37:34;30.80;79.70
11908;DHT22;6014;47.690;9.130;2023-08-12T13:40:10;30.90;83.10
11908;DHT22;6014;47.690;9.130;2023-08-12T13:42:59;31.00;80.80
11908;DHT22;6014;47.690;9.130;2023-08-12T13:45:35;31.50;78.80
11908;DHT22;6014;47.690;9.130;2023-08-12T13:48:33;31.80;76.80
11908;DHT22;6014;47.690;9.130;2023-08-12T13:51:09;31.70;76.50
11908;DHT22;6014;47.690;9.130;2023-08-12T13:53:50;31.20;73.20
11908;DHT22;6014;47.690;9.130;2023-08-12T13:56:40;31.00;74.70
11908;DHT22;6014;47.690;9.130;2023-08-12T13:59:43;31.40;72.90
11908;DHT22;6014;47.690;9.130;2023-08-12T14:02:20;31.90;71.20
11908;DHT22;6014;47.690;9.130;2023-08-12T14:05:07;32.00;66.70
11908;DHT22;6014;47.690;9.130;2023-08-12T14:07:50;31.50;68.70
11908;DHT22;6014;47.690;9.130;2023-08-12T14:10:34;31.90;69.00
11908;DHT22;6014;47.690;9.130;2023-08-12T14:13:37;31.60;68.70
11908;DHT22;6014;47.690;9.130;2023-08-12T14:16:14;30.60;71.40
11908;DHT22;6014;47.690;9.130;2023-08-12T14:18:42;29.90;72.00
11908;DHT22;6014;47.690;9.130;2023-08-12T14:21:12;29.50;73.60
11908;DHT22;6014;47.690;9.130;2023-08-12T14:23:40;29.20;75.90
11908;DHT22;6014;47.690;9.130;2023-08-12T14:26:08;29.10;76.50
11908;DHT22;6014;47.690;9.130;2023-08-12T14:28:36;29.10;78.20
11908;DHT22;6014;47.690;9.130;2023-08-12T14:31:04;29.00;78.40
11908;DHT22;6014;47.690;9.130;2023-08-12T14:33:32;28.70;78.00
11908;DHT22;6014;47.690;9.130;2023-08-12T14:36:00;28.60;79.50
11908;DHT22;6014;47.690;9.130;2023-08-12T14:38:29;28.60;81.00
11908;DHT22;6014;47.690;9.130;2023-08-12T14:40:59;28.30;81.90
11908;DHT22;6014;47.690;9.130;2023-08-12T14:43:28;28.50;83.60
11908;DHT22;6014;47.690;9.130;2023-08-12T14:45:56;29.40;81.50
11908;DHT22;6014;47.690;9.130;2023-08-12T14:48:24;29.60;78.90
11908;DHT22;6014;47.690;9.130;2023-08-12T14:50:52;29.50;78.50
11908;DHT22;6014;47.690;9.130;2023-08-12T14:53:20;29.40;80.50
11908;DHT22;6014;47.690;9.130;2023-08-12T14:55:50;29.70;77.70
11908;DHT22;6014;47.690;9.130;2023-08-12T14:58:18;29.90;77.20
11908;DHT22;6014;47.690;9.130;2023-08-12T15:00:46;29.40;78.10
11908;DHT22;6014;47.690;9.130;2023-08-12T15:03:23;29.40;78.70
11908;DHT22;6014;47.690;9.130;2023-08-12T15:05:59;29.40;78.50
11908;DHT22;6014;47.690;9.130;2023-08-12T15:08:28;29.30;79.60
11908;DHT22;6014;47.690;9.130;2023-08-12T15:10:58;29.50;78.70
11908;DHT22;6014;47.690;9.130;2023-08-12T15:13:26;29.40;79.20
11908;DHT22;6014;47.690;9.130;2023-08-12T15:15:55;29.10;80.00
11908;DHT22;6014;47.690;9.130;2023-08-12T15:18:23;28.60;80.60
11908;DHT22;6014;47.690;9.130;2023-08-12T15:20:51;28.30;83.30
11908;DHT22;6014;47.690;9.130;2023-08-12T15:23:19;28.00;84.10
11908;DHT22;6014;47.690;9.130;2023-08-12T15:25:47;27.90;84.00
11908;DHT22;6014;47.690;9.130;2023-08-12T15:28:16;27.70;85.00
11908;DHT22;6014;47.690;9.130;2023-08-12T15:30:47;27.60;87.20
11908;DHT22;6014;47.690;9.130;2023-08-12T15:33:16;27.50;86.60
11908;DHT22;6014;47.690;9.130;2023-08-12T15:35:44;27.30;86.90
11908;DHT22;6014;47.690;9.130;2023-08-12T15:38:12;27.30;87.50
11908;DHT22;6014;47.690;9.130;2023-08-12T15:40:40;27.30;88.20
11908;DHT22;6014;47.690;9.130;2023-08-12T15:43:09;27.20;89.80
11908;DHT22;6014;47.690;9.130;2023-08-12T15:45:38;27.20;89.30
11908;DHT22;6014;47.690;9.130;2023-08-12T15:48:08;27.20;90.00
11908;DHT22;6014;47.690;9.130;2023-08-12T15:50:37;27.20;90.10
11908;DHT22;6014;47.690;9.130;2023-08-12T15:53:08;27.20;90.20
11908;DHT22;6014;47.690;9.130;2023-08-12T15:55:37;27.30;90.70
11908;DHT22;6014;47.690;9.130;2023-08-12T15:58:05;27.30;90.70
11908;DHT22;6014;47.690;9.130;2023-08-12T16:00:33;27.40;91.10
11908;DHT22;6014;47.690;9.130;2023-08-12T16:03:03;27.50;91.70
11908;DHT22;6014;47.690;9.130;2023-08-12T16:05:33;27.60;91.20
11908;DHT22;6014;47.690;9.130;2023-08-12T16:08:02;27.70;91.20
11908;DHT22;6014;47.690;9.130;2023-08-12T16:10:30;27.70;91.50